Flight Track Log - Related Links

Times and Time Zones

All times are in EDT time to prevent confusion due to time zone crossing. See the USC105 flight status page for this flight to view local times or setup timezone preferences in your user account.

Time Position Orientation Groundspeed Altitude Reporting Facility
EDT Latitude Longitude Course Direction KTS MPH feet Rate Location/Type
Thu 06:58:55 AM 42.2175 -83.5581 160° South 93 107 2,200  Level Cleveland Center
Thu 06:59:25 AM 42.2078 -83.5675 216° Southwest 101 116 2,900 1,412 Climbing FAA TRACON SMA TRACON (SMA)
Thu 06:59:46 AM 42.1983 -83.5767 216° Southwest 109 125 3,400 1,171 Climbing FAA TRACON SMA TRACON (SMA)
Thu 07:00:06 AM 42.1900 -83.5839 213° Southwest 113 130 3,700 1,200 Climbing FAA TRACON SMA TRACON (SMA)
Thu 07:00:26 AM 42.1817 -83.5914 214° Southwest 115 132 4,200 1,500 Climbing FAA TRACON SMA TRACON (SMA)
Thu 07:00:46 AM 42.1717 -83.6011 216° Southwest 116 133 4,700 1,231 Climbing FAA TRACON SMA TRACON (SMA)
Thu 07:01:05 AM 42.1636 -83.6097 218° Southwest 116 133 5,000 300 Climbing FAA TRACON SMA TRACON (SMA)
Thu 07:01:26 AM 42.1536 -83.6194 216° Southwest 155 178 4,900  Descending FAA TRACON SMA TRACON (SMA)
Thu 07:01:46 AM 42.1403 -83.6331 217° Southwest 160 184 5,000 308 Climbing FAA TRACON SMA TRACON (SMA)
Thu 07:02:05 AM 42.1258 -83.6356 187° South 161 185 5,100 -150 Climbing FAA TRACON SMA TRACON (SMA)
Thu 07:02:26 AM 42.1114 -83.6333 173° South 171 197 4,900 -150 Descending FAA TRACON SMA TRACON (SMA)
Thu 07:02:45 AM 42.0931 -83.6308 174° South 170 196 5,000 150 Climbing FAA TRACON SMA TRACON (SMA)
Thu 07:03:06 AM 42.0786 -83.6283 173° South 172 198 5,000  Level FAA TRACON SMA TRACON (SMA)
Thu 07:03:26 AM 42.0639 -83.6258 173° South 173 199 5,000  Level FAA TRACON SMA TRACON (SMA)
Thu 07:03:46 AM 42.0461 -83.6178 161° South 174 200 5,000  Level FAA TRACON SMA TRACON (SMA)
Thu 07:04:00 AM 41.9829 -83.4415 160° South  Level FlightAware Approximate
Thu 07:04:05 AM 42.0317 -83.6108 160° South 178 205 5,000  Level FAA TRACON SMA TRACON (SMA)
Thu 07:04:26 AM 42.0136 -83.6036 163° South 179 206 5,000  Level FAA TRACON SMA TRACON (SMA)
Thu 07:04:46 AM 41.9997 -83.5983 164° South 176 203 5,000  Level FAA TRACON SMA TRACON (SMA)
Thu 07:05:06 AM 41.9822 -83.5922 165° South 179 206 5,000 150 Level FAA TRACON SMA TRACON (SMA)
Thu 07:05:26 AM 41.9689 -83.5872 164° South 178 205 5,100 615 Climbing FAA TRACON SMA TRACON (SMA)
Thu 07:05:45 AM 41.9514 -83.5811 165° South 173 199 5,400 600 Climbing FAA TRACON SMA TRACON (SMA)
Thu 07:06:06 AM 41.9378 -83.5764 166° South 171 197 5,500 429 Climbing FAA TRACON SMA TRACON (SMA)
Thu 07:06:27 AM 41.9219 -83.5717 167° South 172 198 5,700 450 Climbing FAA TRACON SMA TRACON (SMA)
Thu 07:06:46 AM 41.9047 -83.5656 165° South 176 203 5,800 308 Climbing FAA TRACON SMA TRACON (SMA)
Thu 07:07:06 AM 41.8903 -83.5611 167° South 179 206 5,900 308 Climbing FAA TRACON SMA TRACON (SMA)
Thu 07:07:25 AM 41.8722 -83.5547 165° South 179 206 6,000 450 Climbing FAA TRACON SMA TRACON (SMA)
Thu 07:07:46 AM 41.8550 -83.5489 166° South 180 207 6,200 585 Climbing FAA TRACON SMA TRACON (SMA)
Thu 07:08:06 AM 41.8414 -83.5436 164° South 179 206 6,400 600 Climbing FAA TRACON SMA TRACON (SMA)
Thu 07:08:26 AM 41.8244 -83.5372 164° South 178 205 6,600 450 Climbing FAA TRACON SMA TRACON (SMA)
Thu 07:08:46 AM 41.8072 -83.5317 166° South 176 203 6,700 450 Climbing FAA TRACON SMA TRACON (SMA)
Thu 07:09:06 AM 41.7922 -83.5264 165° South 177 204 6,900 293 Climbing FAA TRACON SMA TRACON (SMA)
Thu 07:09:27 AM 41.7747 -83.5214 168° South 177 204 6,900  Level FAA TRACON SMA TRACON (SMA)
Thu 07:09:47 AM 41.7592 -83.5167 167° South 184 212 6,900  Level FAA TRACON SMA TRACON (SMA)
Thu 07:10:06 AM 41.7431 -83.5119 168° South 186 214 6,900  Level FAA TRACON SMA TRACON (SMA)
Thu 07:10:25 AM 41.7275 -83.5069 167° South 188 216 6,900  Level FAA TRACON SMA TRACON (SMA)
Thu 07:10:46 AM 41.7081 -83.5014 168° South 185 213 6,900  Level FAA TRACON SMA TRACON (SMA)
Thu 07:11:06 AM 41.6931 -83.4969 168° South 182 209 6,900  Level FAA TRACON SMA TRACON (SMA)
Thu 07:11:26 AM 41.6742 -83.4903 165° South 182 209 6,900  Level FAA TRACON SMA TRACON (SMA)
Thu 07:11:46 AM 41.6592 -83.4889 176° South 177 204 6,900  Level FAA TRACON SMA TRACON (SMA)
Thu 07:12:06 AM 41.6439 -83.4828 163° South 188 216 6,900  Level FAA TRACON SMA TRACON (SMA)
Thu 07:12:27 AM 41.6250 -83.4767 166° South 182 209 6,900  Level FAA TRACON SMA TRACON (SMA)
Thu 07:12:47 AM 41.6103 -83.4708 163° South 182 209 6,900  Level FAA TRACON SMA TRACON (SMA)
Thu 07:13:06 AM 41.5953 -83.4656 165° South 182 209 6,900  Level FAA TRACON SMA TRACON (SMA)
Thu 07:13:26 AM 41.5800 -83.4611 168° South 181 208 6,900  Level FAA TRACON SMA TRACON (SMA)
Thu 07:13:46 AM 41.5611 -83.4553 167° South 181 208 6,900  Level FAA TRACON SMA TRACON (SMA)
Thu 07:14:06 AM 41.5461 -83.4506 167° South 182 209 6,900  Level FAA TRACON SMA TRACON (SMA)
Thu 07:14:26 AM 41.5308 -83.4458 167° South 181 208 6,900  Level FAA TRACON SMA TRACON (SMA)
Thu 07:14:46 AM 41.5119 -83.4397 166° South 181 208 6,900  Level FAA TRACON SMA TRACON (SMA)
Thu 07:15:07 AM 41.4969 -83.4350 167° South 181 208 6,900  Level FAA TRACON SMA TRACON (SMA)
Thu 07:15:27 AM 41.4781 -83.4289 166° South 181 208 6,900  Level FAA TRACON SMA TRACON (SMA)
Thu 07:15:47 AM 41.4631 -83.4236 165° South 181 208 6,900  Level FAA TRACON SMA TRACON (SMA)
Thu 07:16:07 AM 41.4481 -83.4186 166° South 181 208 6,900  Level FAA TRACON SMA TRACON (SMA)
Thu 07:16:26 AM 41.4289 -83.4131 168° South 180 207 6,900  Level FAA TRACON SMA TRACON (SMA)
Thu 07:16:46 AM 41.4139 -83.4083 167° South 181 208 6,900  Level FAA TRACON SMA TRACON (SMA)
Thu 07:17:06 AM 41.3986 -83.4039 168° South 181 208 6,900  Level FAA TRACON SMA TRACON (SMA)
Thu 07:17:27 AM 41.3836 -83.3997 168° South 180 207 6,900  Level FAA TRACON SMA TRACON (SMA)
Thu 07:17:47 AM 41.3647 -83.3939 167° South 181 208 6,900  Level FAA TRACON SMA TRACON (SMA)
Thu 07:18:07 AM 41.3497 -83.3892 167° South 180 207 6,900  Level FAA TRACON SMA TRACON (SMA)
Thu 07:18:27 AM 41.3383 -83.3853 166° South 180 207 6,900 10 Level FAA TRACON SMA TRACON (SMA)
Thu 07:20:00 AM 41.2793 -83.3616 163° South  Level FlightAware Approximate
Thu 07:27:00 AM 40.9383 -83.2299 166° South  Level FlightAware Approximate
Thu 07:28:00 AM 40.8891 -83.2139 166° South  Level FlightAware Approximate
Thu 07:28:24 AM 40.8358 -83.2314 166° South 188 216 7,000  Level Indianapolis Center
Thu 07:29:00 AM 40.8399 -83.1979 166° South  Level FlightAware Approximate
Thu 07:29:25 AM 40.7858 -83.2161 167° South 185 213 7,000  Level Indianapolis Center
Thu 07:30:00 AM 40.7907 -83.1819 166° South  Level FlightAware Approximate
Thu 07:30:27 AM 40.7375 -83.2022 168° South 184 212 7,000  Level Indianapolis Center
Thu 07:31:00 AM 40.7415 -83.1660 166° South  Level FlightAware Approximate
Thu 07:31:28 AM 40.6861 -83.1858 166° South 187 215 7,000  Level Indianapolis Center
Thu 07:32:00 AM 40.6923 -83.1501 166° South  Level FlightAware Approximate
Thu 07:32:30 AM 40.6353 -83.1700 167° South 187 215 7,000  Level Indianapolis Center
Thu 07:33:00 AM 40.6431 -83.1342 166° South  Level FlightAware Approximate
Thu 07:33:31 AM 40.5819 -83.1550 168° South 186 214 7,000  Level Indianapolis Center
Thu 07:34:33 AM 40.5303 -83.1392 167° South 187 215 7,000  Level Indianapolis Center
Thu 07:35:34 AM 40.4856 -83.1114 155° Southeast 190 219 7,000  Level Indianapolis Center
Thu 07:36:33 AM 40.4425 -83.0592 137° Southeast 242 278 7,000 -97 Level Indianapolis Center
Thu 07:37:38 AM 40.3967 -83.0017 136° Southeast 200 230 6,800 -333 Descending Indianapolis Center
Thu 07:38:39 AM 40.3536 -82.9492 137° Southeast 206 237 6,300 -878 Descending Indianapolis Center
Thu 07:39:41 AM 40.3061 -82.8944 139° Southeast 217 250 5,000 -1,050 Descending Indianapolis Center
Thu 07:39:59 AM 40.2908 -82.8858 157° South 218 251 4,900 -885 Descending Indianapolis Center
Thu 07:40:42 AM 40.2547 -82.8625 154° Southeast 214 246 4,100 -557 Descending Indianapolis Center
Thu 07:41:36 AM 40.2067 -82.8325 155° Southeast 229 264 4,000 -48 Descending Indianapolis Center
Thu 07:42:46 AM 40.1514 -82.8161 167° South 190 219 4,000  Level Indianapolis Center
Thu 07:43:47 AM 40.1011 -82.8056 171° South 183 211 4,000  Level Indianapolis Center
Thu 07:44:49 AM 40.0497 -82.8033 178° South 182 209 4,000  Level Indianapolis Center
Thu 07:45:51 AM 39.9992 -82.8014 178° South 181 208 4,000 -146 Level Indianapolis Center
Thu 07:46:52 AM 39.9519 -82.8036 182° South 173 199 3,700 -488 Descending Indianapolis Center
Thu 07:47:54 AM 39.9092 -82.8311 206° Southwest 169 194 3,000 -780 Descending Indianapolis Center
Thu 07:48:55 AM 39.8681 -82.8628 211° Southwest 170 196 2,100 -846 Descending Indianapolis Center
Thu 07:49:12 AM 39.8542 -82.8769 218° Southwest 174 200 1,900 -1,065 Descending Indianapolis Center
Thu 07:49:57 AM 39.8317 -82.9036 222° Southwest 156 180 1,000 -566 Descending Indianapolis Center
Thu 07:50:58 AM 39.8069 -82.9356 225° Southwest 151 174 900 -98 Descending Indianapolis Center
Thu 07:52:00 AM 39.8000 -82.9167 186° South  Level FlightAware Approximate

Login

Don't have an account? Register now (free) for customized features, flight alerts, and more!